sensor_id;sensor_type;location;lat;lon;timestamp;P1;durP1;ratioP1;P2;durP2;ratioP2
17564;SDS011;62994;52.126;5.596;2023-02-08T00:00:12;14.27;;;9.10;;
17564;SDS011;62994;52.126;5.596;2023-02-08T00:02:41;13.43;;;9.30;;
17564;SDS011;62994;52.126;5.596;2023-02-08T00:08:53;11.40;;;8.20;;
17564;SDS011;62994;52.126;5.596;2023-02-08T00:15:17;11.67;;;8.47;;
17564;SDS011;62994;52.126;5.596;2023-02-08T00:34:53;13.73;;;7.77;;
17564;SDS011;62994;52.126;5.596;2023-02-08T00:48:36;10.23;;;8.20;;
17564;SDS011;62994;52.126;5.596;2023-02-08T06:49:51;9.77;;;7.50;;
17564;SDS011;62994;52.126;5.596;2023-02-08T06:59:11;10.10;;;7.57;;
17564;SDS011;62994;52.126;5.596;2023-02-08T07:15:32;9.70;;;8.27;;
17564;SDS011;62994;52.126;5.596;2023-02-08T07:32:50;12.67;;;8.40;;
17564;SDS011;62994;52.126;5.596;2023-02-08T07:39:02;12.87;;;8.90;;
17564;SDS011;62994;52.126;5.596;2023-02-08T07:44:54;12.03;;;8.73;;
17564;SDS011;62994;52.126;5.596;2023-02-08T07:47:28;12.70;;;8.77;;
17564;SDS011;62994;52.126;5.596;2023-02-08T07:57:09;35.90;;;18.40;;
17564;SDS011;62994;52.126;5.596;2023-02-08T08:10:25;15.67;;;9.63;;
17564;SDS011;62994;52.126;5.596;2023-02-08T08:12:54;13.83;;;8.50;;
17564;SDS011;62994;52.126;5.596;2023-02-08T09:30:37;10.23;;;8.13;;
17564;SDS011;62994;52.126;5.596;2023-02-08T09:46:24;9.47;;;7.53;;
17564;SDS011;62994;52.126;5.596;2023-02-08T09:52:38;11.97;;;7.37;;
17564;SDS011;62994;52.126;5.596;2023-02-08T10:03:37;12.63;;;7.83;;
17564;SDS011;62994;52.126;5.596;2023-02-08T10:06:10;13.60;;;6.80;;
17564;SDS011;62994;52.126;5.596;2023-02-08T10:08:52;8.43;;;7.53;;
17564;SDS011;62994;52.126;5.596;2023-02-08T10:38:38;9.30;;;6.97;;
17564;SDS011;62994;52.126;5.596;2023-02-08T10:41:53;10.93;;;6.47;;
17564;SDS011;62994;52.126;5.596;2023-02-08T11:06:08;8.13;;;6.83;;
17564;SDS011;62994;52.126;5.596;2023-02-08T11:18:48;10.27;;;6.70;;
17564;SDS011;62994;52.126;5.596;2023-02-08T11:21:29;11.83;;;6.73;;
17564;SDS011;62994;52.126;5.596;2023-02-08T11:24:06;7.67;;;6.63;;
17564;SDS011;62994;52.126;5.596;2023-02-08T11:27:14;12.00;;;6.80;;
17564;SDS011;62994;52.126;5.596;2023-02-08T11:34:31;8.07;;;7.37;;
17564;SDS011;62994;52.126;5.596;2023-02-08T11:40:14;7.13;;;6.53;;
17564;SDS011;62994;52.126;5.596;2023-02-08T11:43:38;7.03;;;5.97;;
17564;SDS011;62994;52.126;5.596;2023-02-08T11:46:08;9.45;;;6.53;;
17564;SDS011;62994;52.126;5.596;2023-02-08T11:48:49;7.18;;;6.47;;
17564;SDS011;62994;52.126;5.596;2023-02-08T11:54:41;7.38;;;6.78;;
17564;SDS011;62994;52.126;5.596;2023-02-08T12:00:38;9.57;;;7.50;;
17564;SDS011;62994;52.126;5.596;2023-02-08T12:03:10;7.32;;;6.50;;
17564;SDS011;62994;52.126;5.596;2023-02-08T12:05:42;6.70;;;6.10;;
17564;SDS011;62994;52.126;5.596;2023-02-08T12:15:01;6.28;;;5.78;;
17564;SDS011;62994;52.126;5.596;2023-02-08T12:20:48;6.80;;;5.38;;
17564;SDS011;62994;52.126;5.596;2023-02-08T12:26:22;5.82;;;5.18;;
17564;SDS011;62994;52.126;5.596;2023-02-08T12:29:23;5.85;;;5.30;;
17564;SDS011;62994;52.126;5.596;2023-02-08T12:32:05;6.65;;;5.60;;
17564;SDS011;62994;52.126;5.596;2023-02-08T12:35:10;7.88;;;5.80;;
17564;SDS011;62994;52.126;5.596;2023-02-08T12:37:59;6.45;;;5.80;;
17564;SDS011;62994;52.126;5.596;2023-02-08T12:40:50;6.50;;;5.90;;
17564;SDS011;62994;52.126;5.596;2023-02-08T12:43:47;5.60;;;5.20;;
17564;SDS011;62994;52.126;5.596;2023-02-08T12:46:32;6.30;;;5.63;;
17564;SDS011;62994;52.126;5.596;2023-02-08T12:49:36;6.03;;;5.60;;
17564;SDS011;62994;52.126;5.596;2023-02-08T12:52:30;5.85;;;5.40;;
17564;SDS011;62994;52.126;5.596;2023-02-08T12:55:05;5.85;;;5.38;;
17564;SDS011;62994;52.126;5.596;2023-02-08T12:57:41;6.47;;;5.97;;
17564;SDS011;62994;52.126;5.596;2023-02-08T13:00:15;9.13;;;6.55;;
17564;SDS011;62994;52.126;5.596;2023-02-08T13:02:47;6.10;;;5.70;;
17564;SDS011;62994;52.126;5.596;2023-02-08T13:05:21;5.93;;;5.40;;
17564;SDS011;62994;52.126;5.596;2023-02-08T13:07:56;6.75;;;5.22;;
17564;SDS011;62994;52.126;5.596;2023-02-08T13:10:30;5.20;;;4.80;;
17564;SDS011;62994;52.126;5.596;2023-02-08T13:13:03;5.50;;;5.03;;
17564;SDS011;62994;52.126;5.596;2023-02-08T13:16:02;5.75;;;5.35;;
17564;SDS011;62994;52.126;5.596;2023-02-08T13:18:43;6.50;;;5.00;;
17564;SDS011;62994;52.126;5.596;2023-02-08T13:21:16;4.57;;;4.28;;
17564;SDS011;62994;52.126;5.596;2023-02-08T13:23:52;5.82;;;4.80;;
17564;SDS011;62994;52.126;5.596;2023-02-08T13:29:20;6.93;;;4.32;;
17564;SDS011;62994;52.126;5.596;2023-02-08T13:31:59;4.65;;;4.28;;
17564;SDS011;62994;52.126;5.596;2023-02-08T13:34:32;6.18;;;3.92;;
17564;SDS011;62994;52.126;5.596;2023-02-08T13:37:16;3.53;;;3.33;;
17564;SDS011;62994;52.126;5.596;2023-02-08T13:40:02;2.75;;;2.55;;
17564;SDS011;62994;52.126;5.596;2023-02-08T13:45:28;3.33;;;3.13;;
17564;SDS011;62994;52.126;5.596;2023-02-08T13:48:09;2.95;;;2.75;;
17564;SDS011;62994;52.126;5.596;2023-02-08T13:50:46;4.90;;;2.85;;
17564;SDS011;62994;52.126;5.596;2023-02-08T14:03:41;2.47;;;2.38;;
17564;SDS011;62994;52.126;5.596;2023-02-08T14:10:50;2.00;;;1.90;;
17564;SDS011;62994;52.126;5.596;2023-02-08T14:13:44;2.47;;;2.28;;
17564;SDS011;62994;52.126;5.596;2023-02-08T14:16:25;2.22;;;2.13;;
17564;SDS011;62994;52.126;5.596;2023-02-08T14:22:04;2.60;;;2.40;;
17564;SDS011;62994;52.126;5.596;2023-02-08T14:25:15;2.35;;;2.05;;
17564;SDS011;62994;52.126;5.596;2023-02-08T14:27:58;2.97;;;1.90;;
17564;SDS011;62994;52.126;5.596;2023-02-08T14:30:38;2.38;;;1.95;;
17564;SDS011;62994;52.126;5.596;2023-02-08T14:36:25;4.50;;;2.85;;
17564;SDS011;62994;52.126;5.596;2023-02-08T14:45:35;2.70;;;2.50;;
17564;SDS011;62994;52.126;5.596;2023-02-08T14:54:47;2.00;;;1.90;;
17564;SDS011;62994;52.126;5.596;2023-02-08T14:58:10;2.35;;;2.25;;
17564;SDS011;62994;52.126;5.596;2023-02-08T15:00:59;2.50;;;2.30;;
17564;SDS011;62994;52.126;5.596;2023-02-08T15:03:30;4.38;;;2.72;;
17564;SDS011;62994;52.126;5.596;2023-02-08T15:26:14;2.58;;;2.40;;
17564;SDS011;62994;52.126;5.596;2023-02-08T15:49:41;3.88;;;3.58;;
17564;SDS011;62994;52.126;5.596;2023-02-08T15:52:34;3.63;;;3.33;;
17564;SDS011;62994;52.126;5.596;2023-02-08T15:55:51;3.65;;;3.45;;
17564;SDS011;62994;52.126;5.596;2023-02-08T16:02:04;3.40;;;3.20;;
17564;SDS011;62994;52.126;5.596;2023-02-08T16:05:09;4.47;;;3.45;;
17564;SDS011;62994;52.126;5.596;2023-02-08T16:07:47;5.05;;;3.50;;
17564;SDS011;62994;52.126;5.596;2023-02-08T16:13:28;3.80;;;3.50;;
17564;SDS011;62994;52.126;5.596;2023-02-08T16:16:21;3.38;;;3.08;;
17564;SDS011;62994;52.126;5.596;2023-02-08T16:29:21;4.68;;;4.28;;
17564;SDS011;62994;52.126;5.596;2023-02-08T16:35:26;4.20;;;3.80;;
17564;SDS011;62994;52.126;5.596;2023-02-08T16:38:00;7.22;;;3.60;;
17564;SDS011;62994;52.126;5.596;2023-02-08T16:40:52;3.53;;;3.22;;
17564;SDS011;62994;52.126;5.596;2023-02-08T16:43:46;5.75;;;3.33;;
17564;SDS011;62994;52.126;5.596;2023-02-08T16:46:35;3.75;;;3.40;;
17564;SDS011;62994;52.126;5.596;2023-02-08T16:49:13;4.35;;;3.67;;
17564;SDS011;62994;52.126;5.596;2023-02-08T16:51:49;4.60;;;4.25;;
17564;SDS011;62994;52.126;5.596;2023-02-08T16:54:38;7.90;;;4.50;;
17564;SDS011;62994;52.126;5.596;2023-02-08T16:57:09;3.90;;;3.60;;
17564;SDS011;62994;52.126;5.596;2023-02-08T17:00:10;3.92;;;3.63;;
17564;SDS011;62994;52.126;5.596;2023-02-08T17:03:04;3.75;;;3.47;;
17564;SDS011;62994;52.126;5.596;2023-02-08T17:05:36;6.22;;;4.60;;
17564;SDS011;62994;52.126;5.596;2023-02-08T17:08:28;4.97;;;4.53;;
17564;SDS011;62994;52.126;5.596;2023-02-08T17:11:07;5.55;;;4.60;;
17564;SDS011;62994;52.126;5.596;2023-02-08T17:13:46;4.22;;;3.83;;
17564;SDS011;62994;52.126;5.596;2023-02-08T17:16:17;5.43;;;4.18;;
17564;SDS011;62994;52.126;5.596;2023-02-08T17:19:09;4.00;;;3.70;;
17564;SDS011;62994;52.126;5.596;2023-02-08T17:25:17;3.40;;;3.20;;
17564;SDS011;62994;52.126;5.596;2023-02-08T17:28:10;4.30;;;3.22;;
17564;SDS011;62994;52.126;5.596;2023-02-08T17:31:00;3.42;;;3.13;;
17564;SDS011;62994;52.126;5.596;2023-02-08T17:34:09;4.03;;;3.13;;
17564;SDS011;62994;52.126;5.596;2023-02-08T17:40:26;3.60;;;3.30;;
17564;SDS011;62994;52.126;5.596;2023-02-08T17:47:23;3.55;;;3.33;;
17564;SDS011;62994;52.126;5.596;2023-02-08T17:54:12;4.30;;;4.05;;
17564;SDS011;62994;52.126;5.596;2023-02-08T18:04:00;4.97;;;4.57;;
17564;SDS011;62994;52.126;5.596;2023-02-08T18:10:25;6.18;;;5.38;;
17564;SDS011;62994;52.126;5.596;2023-02-08T18:17:01;7.13;;;4.80;;
17564;SDS011;62994;52.126;5.596;2023-02-08T18:23:00;5.03;;;4.63;;
17564;SDS011;62994;52.126;5.596;2023-02-08T18:35:52;5.20;;;4.70;;
17564;SDS011;62994;52.126;5.596;2023-02-08T18:41:55;5.93;;;5.43;;
17564;SDS011;62994;52.126;5.596;2023-02-08T18:44:56;8.13;;;5.70;;
17564;SDS011;62994;52.126;5.596;2023-02-08T18:51:15;5.60;;;5.10;;
17564;SDS011;62994;52.126;5.596;2023-02-08T18:53:51;5.40;;;5.00;;
17564;SDS011;62994;52.126;5.596;2023-02-08T18:56:49;7.53;;;5.30;;
17564;SDS011;62994;52.126;5.596;2023-02-08T19:03:36;5.30;;;4.90;;
17564;SDS011;62994;52.126;5.596;2023-02-08T19:06:08;5.50;;;5.00;;
17564;SDS011;62994;52.126;5.596;2023-02-08T19:08:42;5.68;;;5.20;;
17564;SDS011;62994;52.126;5.596;2023-02-08T19:11:42;5.00;;;4.70;;
17564;SDS011;62994;52.126;5.596;2023-02-08T19:22:06;5.53;;;5.07;;
17564;SDS011;62994;52.126;5.596;2023-02-08T19:28:15;6.93;;;5.60;;
17564;SDS011;62994;52.126;5.596;2023-02-08T19:34:53;5.13;;;4.73;;
17564;SDS011;62994;52.126;5.596;2023-02-08T19:37:23;8.93;;;5.93;;
17564;SDS011;62994;52.126;5.596;2023-02-08T19:39:57;6.23;;;5.73;;
17564;SDS011;62994;52.126;5.596;2023-02-08T19:42:26;7.20;;;6.23;;
17564;SDS011;62994;52.126;5.596;2023-02-08T19:45:00;6.70;;;6.10;;
17564;SDS011;62994;52.126;5.596;2023-02-08T19:50:54;7.30;;;6.13;;
17564;SDS011;62994;52.126;5.596;2023-02-08T19:53:37;6.70;;;6.10;;
17564;SDS011;62994;52.126;5.596;2023-02-08T19:56:25;6.60;;;6.10;;
17564;SDS011;62994;52.126;5.596;2023-02-08T19:59:13;9.00;;;6.80;;
17564;SDS011;62994;52.126;5.596;2023-02-08T20:01:47;6.43;;;5.83;;
17564;SDS011;62994;52.126;5.596;2023-02-08T20:04:23;9.27;;;6.47;;
17564;SDS011;62994;52.126;5.596;2023-02-08T20:06:50;7.43;;;6.82;;
17564;SDS011;62994;52.126;5.596;2023-02-08T20:09:25;7.43;;;6.80;;
17564;SDS011;62994;52.126;5.596;2023-02-08T20:12:20;7.57;;;6.87;;
17564;SDS011;62994;52.126;5.596;2023-02-08T20:15:24;7.27;;;6.53;;
17564;SDS011;62994;52.126;5.596;2023-02-08T20:17:59;6.87;;;6.20;;
17564;SDS011;62994;52.126;5.596;2023-02-08T20:20:34;7.70;;;6.93;;
17564;SDS011;62994;52.126;5.596;2023-02-08T20:23:13;10.20;;;8.30;;
17564;SDS011;62994;52.126;5.596;2023-02-08T20:25:42;8.27;;;7.33;;
17564;SDS011;62994;52.126;5.596;2023-02-08T20:28:20;14.17;;;8.20;;
17564;SDS011;62994;52.126;5.596;2023-02-08T20:30:47;15.67;;;8.60;;
17564;SDS011;62994;52.126;5.596;2023-02-08T20:33:24;20.13;;;10.37;;
17564;SDS011;62994;52.126;5.596;2023-02-08T20:36:10;21.97;;;9.93;;
17564;SDS011;62994;52.126;5.596;2023-02-08T20:38:39;16.13;;;9.87;;
17564;SDS011;62994;52.126;5.596;2023-02-08T20:41:17;16.47;;;8.90;;
17564;SDS011;62994;52.126;5.596;2023-02-08T20:43:50;14.43;;;9.53;;
17564;SDS011;62994;52.126;5.596;2023-02-08T20:46:45;10.17;;;7.40;;
17564;SDS011;62994;52.126;5.596;2023-02-08T20:49:20;12.23;;;7.97;;
17564;SDS011;62994;52.126;5.596;2023-02-08T20:51:50;11.80;;;8.20;;
17564;SDS011;62994;52.126;5.596;2023-02-08T20:54:21;18.17;;;8.63;;
17564;SDS011;62994;52.126;5.596;2023-02-08T20:56:51;20.50;;;9.40;;
17564;SDS011;62994;52.126;5.596;2023-02-08T20:59:22;14.57;;;8.20;;
17564;SDS011;62994;52.126;5.596;2023-02-08T21:01:57;16.07;;;9.47;;
17564;SDS011;62994;52.126;5.596;2023-02-08T21:04:29;13.90;;;8.70;;
17564;SDS011;62994;52.126;5.596;2023-02-08T21:07:09;14.97;;;10.20;;
17564;SDS011;62994;52.126;5.596;2023-02-08T21:10:07;17.03;;;8.80;;
17564;SDS011;62994;52.126;5.596;2023-02-08T21:12:49;13.40;;;8.97;;
17564;SDS011;62994;52.126;5.596;2023-02-08T21:15:31;12.70;;;8.77;;
17564;SDS011;62994;52.126;5.596;2023-02-08T21:18:04;10.90;;;7.90;;
17564;SDS011;62994;52.126;5.596;2023-02-08T21:20:47;11.20;;;7.90;;
17564;SDS011;62994;52.126;5.596;2023-02-08T21:23:43;11.60;;;7.57;;
17564;SDS011;62994;52.126;5.596;2023-02-08T21:26:14;10.97;;;7.30;;
17564;SDS011;62994;52.126;5.596;2023-02-08T21:28:54;8.90;;;6.50;;
17564;SDS011;62994;52.126;5.596;2023-02-08T21:31:27;12.50;;;7.83;;
17564;SDS011;62994;52.126;5.596;2023-02-08T21:34:04;10.83;;;6.30;;
17564;SDS011;62994;52.126;5.596;2023-02-08T21:36:37;8.73;;;6.47;;
17564;SDS011;62994;52.126;5.596;2023-02-08T21:39:35;8.57;;;6.47;;
17564;SDS011;62994;52.126;5.596;2023-02-08T21:42:06;10.43;;;6.60;;
17564;SDS011;62994;52.126;5.596;2023-02-08T21:44:45;7.90;;;7.10;;
17564;SDS011;62994;52.126;5.596;2023-02-08T21:50:49;7.43;;;6.70;;
17564;SDS011;62994;52.126;5.596;2023-02-08T21:53:36;10.50;;;6.43;;
17564;SDS011;62994;52.126;5.596;2023-02-08T21:56:33;8.30;;;6.50;;
17564;SDS011;62994;52.126;5.596;2023-02-08T21:59:16;10.47;;;7.47;;
17564;SDS011;62994;52.126;5.596;2023-02-08T22:01:47;10.93;;;7.13;;
17564;SDS011;62994;52.126;5.596;2023-02-08T22:05:58;9.87;;;7.30;;
17564;SDS011;62994;52.126;5.596;2023-02-08T22:07:16;10.23;;;7.27;;
17564;SDS011;62994;52.126;5.596;2023-02-08T22:09:44;10.40;;;7.00;;
17564;SDS011;62994;52.126;5.596;2023-02-08T22:12:11;12.90;;;7.80;;
17564;SDS011;62994;52.126;5.596;2023-02-08T22:14:43;13.77;;;9.27;;
17564;SDS011;62994;52.126;5.596;2023-02-08T22:17:25;16.23;;;9.20;;
17564;SDS011;62994;52.126;5.596;2023-02-08T22:19:53;10.00;;;8.87;;
17564;SDS011;62994;52.126;5.596;2023-02-08T22:22:23;11.27;;;7.97;;
17564;SDS011;62994;52.126;5.596;2023-02-08T22:24:54;11.40;;;8.33;;
17564;SDS011;62994;52.126;5.596;2023-02-08T22:27:22;11.43;;;8.17;;
17564;SDS011;62994;52.126;5.596;2023-02-08T22:29:56;13.20;;;8.87;;
17564;SDS011;62994;52.126;5.596;2023-02-08T22:32:32;10.27;;;7.50;;
17564;SDS011;62994;52.126;5.596;2023-02-08T22:35:00;13.70;;;8.63;;
17564;SDS011;62994;52.126;5.596;2023-02-08T22:37:31;7.77;;;7.17;;
17564;SDS011;62994;52.126;5.596;2023-02-08T22:40:01;9.50;;;7.30;;
17564;SDS011;62994;52.126;5.596;2023-02-08T22:42:36;11.03;;;6.93;;
17564;SDS011;62994;52.126;5.596;2023-02-08T22:45:13;8.73;;;7.43;;
17564;SDS011;62994;52.126;5.596;2023-02-08T22:47:42;9.73;;;6.83;;
17564;SDS011;62994;52.126;5.596;2023-02-08T22:50:15;10.10;;;6.87;;
17564;SDS011;62994;52.126;5.596;2023-02-08T22:52:42;13.23;;;6.80;;
17564;SDS011;62994;52.126;5.596;2023-02-08T22:55:10;7.70;;;5.50;;
17564;SDS011;62994;52.126;5.596;2023-02-08T22:57:44;8.73;;;6.33;;
17564;SDS011;62994;52.126;5.596;2023-02-08T23:00:16;9.10;;;6.00;;
17564;SDS011;62994;52.126;5.596;2023-02-08T23:02:54;12.27;;;6.00;;
17564;SDS011;62994;52.126;5.596;2023-02-08T23:05:29;8.30;;;5.80;;
17564;SDS011;62994;52.126;5.596;2023-02-08T23:08:02;6.20;;;5.60;;
17564;SDS011;62994;52.126;5.596;2023-02-08T23:10:32;5.47;;;5.07;;
17564;SDS011;62994;52.126;5.596;2023-02-08T23:13:09;9.97;;;5.47;;
17564;SDS011;62994;52.126;5.596;2023-02-08T23:15:45;8.07;;;5.43;;
17564;SDS011;62994;52.126;5.596;2023-02-08T23:18:21;5.30;;;4.40;;
17564;SDS011;62994;52.126;5.596;2023-02-08T23:20:54;5.93;;;5.00;;
17564;SDS011;62994;52.126;5.596;2023-02-08T23:23:28;7.47;;;4.90;;
17564;SDS011;62994;52.126;5.596;2023-02-08T23:25:58;5.83;;;4.63;;
17564;SDS011;62994;52.126;5.596;2023-02-08T23:28:27;5.87;;;4.90;;
17564;SDS011;62994;52.126;5.596;2023-02-08T23:30:58;4.67;;;4.27;;
17564;SDS011;62994;52.126;5.596;2023-02-08T23:33:37;5.40;;;4.90;;
17564;SDS011;62994;52.126;5.596;2023-02-08T23:36:14;6.33;;;4.30;;
17564;SDS011;62994;52.126;5.596;2023-02-08T23:38:59;6.77;;;4.77;;
17564;SDS011;62994;52.126;5.596;2023-02-08T23:41:30;5.37;;;4.87;;
17564;SDS011;62994;52.126;5.596;2023-02-08T23:43:59;5.37;;;4.87;;
17564;SDS011;62994;52.126;5.596;2023-02-08T23:46:31;7.63;;;4.73;;
17564;SDS011;62994;52.126;5.596;2023-02-08T23:48:59;6.00;;;4.57;;
17564;SDS011;62994;52.126;5.596;2023-02-08T23:51:30;6.93;;;5.17;;
17564;SDS011;62994;52.126;5.596;2023-02-08T23:54:01;5.53;;;4.97;;
17564;SDS011;62994;52.126;5.596;2023-02-08T23:56:33;5.10;;;4.63;;
17564;SDS011;62994;52.126;5.596;2023-02-08T23:59:05;5.83;;;4.87;;
